sensor_id;sensor_type;location;lat;lon;timestamp;P1;durP1;ratioP1;P2;durP2;ratioP2
51792;SDS011;37850;53.178;6.376;2023-01-25T00:01:42;37.08;;;22.50;;
51792;SDS011;37850;53.178;6.376;2023-01-25T00:04:08;38.33;;;21.50;;
51792;SDS011;37850;53.178;6.376;2023-01-25T00:06:34;35.13;;;20.05;;
51792;SDS011;37850;53.178;6.376;2023-01-25T00:09:03;39.70;;;21.55;;
51792;SDS011;37850;53.178;6.376;2023-01-25T00:11:29;35.60;;;20.15;;
51792;SDS011;37850;53.178;6.376;2023-01-25T00:13:55;36.40;;;20.65;;
51792;SDS011;37850;53.178;6.376;2023-01-25T00:16:21;36.13;;;20.90;;
51792;SDS011;37850;53.178;6.376;2023-01-25T00:18:48;35.55;;;20.50;;
51792;SDS011;37850;53.178;6.376;2023-01-25T00:21:16;35.95;;;20.83;;
51792;SDS011;37850;53.178;6.376;2023-01-25T00:23:44;34.70;;;19.98;;
51792;SDS011;37850;53.178;6.376;2023-01-25T00:26:10;35.80;;;21.17;;
51792;SDS011;37850;53.178;6.376;2023-01-25T00:28:35;34.53;;;19.00;;
51792;SDS011;37850;53.178;6.376;2023-01-25T00:31:02;36.67;;;20.98;;
51792;SDS011;37850;53.178;6.376;2023-01-25T00:36:01;34.35;;;19.98;;
51792;SDS011;37850;53.178;6.376;2023-01-25T00:38:57;36.00;;;20.88;;
51792;SDS011;37850;53.178;6.376;2023-01-25T00:41:23;33.15;;;19.23;;
51792;SDS011;37850;53.178;6.376;2023-01-25T00:43:49;35.75;;;20.05;;
51792;SDS011;37850;53.178;6.376;2023-01-25T00:46:15;33.97;;;21.08;;
51792;SDS011;37850;53.178;6.376;2023-01-25T00:48:41;35.63;;;21.63;;
51792;SDS011;37850;53.178;6.376;2023-01-25T00:51:07;35.42;;;20.67;;
51792;SDS011;37850;53.178;6.376;2023-01-25T00:53:33;36.50;;;20.52;;
51792;SDS011;37850;53.178;6.376;2023-01-25T00:55:59;35.35;;;21.25;;
51792;SDS011;37850;53.178;6.376;2023-01-25T00:58:25;37.22;;;20.60;;
51792;SDS011;37850;53.178;6.376;2023-01-25T01:00:52;35.63;;;20.98;;
51792;SDS011;37850;53.178;6.376;2023-01-25T01:03:18;34.88;;;20.45;;
51792;SDS011;37850;53.178;6.376;2023-01-25T01:05:44;39.63;;;21.45;;
51792;SDS011;37850;53.178;6.376;2023-01-25T01:08:10;36.58;;;20.77;;
51792;SDS011;37850;53.178;6.376;2023-01-25T01:10:38;38.28;;;21.90;;
51792;SDS011;37850;53.178;6.376;2023-01-25T01:13:03;42.15;;;22.83;;
51792;SDS011;37850;53.178;6.376;2023-01-25T01:15:30;37.53;;;21.30;;
51792;SDS011;37850;53.178;6.376;2023-01-25T01:17:55;37.42;;;21.58;;
51792;SDS011;37850;53.178;6.376;2023-01-25T01:20:21;39.28;;;22.48;;
51792;SDS011;37850;53.178;6.376;2023-01-25T01:22:47;37.90;;;21.63;;
51792;SDS011;37850;53.178;6.376;2023-01-25T01:25:16;39.80;;;22.33;;
51792;SDS011;37850;53.178;6.376;2023-01-25T01:27:42;37.10;;;22.15;;
51792;SDS011;37850;53.178;6.376;2023-01-25T01:30:07;37.30;;;22.38;;
51792;SDS011;37850;53.178;6.376;2023-01-25T01:32:34;40.53;;;22.92;;
51792;SDS011;37850;53.178;6.376;2023-01-25T01:34:59;39.95;;;22.20;;
51792;SDS011;37850;53.178;6.376;2023-01-25T01:37:25;39.60;;;22.35;;
51792;SDS011;37850;53.178;6.376;2023-01-25T01:39:51;41.65;;;23.73;;
51792;SDS011;37850;53.178;6.376;2023-01-25T01:42:16;41.38;;;23.38;;
51792;SDS011;37850;53.178;6.376;2023-01-25T01:44:49;38.53;;;21.60;;
51792;SDS011;37850;53.178;6.376;2023-01-25T01:47:21;43.60;;;23.90;;
51792;SDS011;37850;53.178;6.376;2023-01-25T01:50:16;44.38;;;23.67;;
51792;SDS011;37850;53.178;6.376;2023-01-25T01:52:47;42.03;;;23.00;;
51792;SDS011;37850;53.178;6.376;2023-01-25T01:55:14;45.92;;;25.05;;
51792;SDS011;37850;53.178;6.376;2023-01-25T01:57:43;44.45;;;24.15;;
51792;SDS011;37850;53.178;6.376;2023-01-25T02:00:24;44.28;;;26.13;;
51792;SDS011;37850;53.178;6.376;2023-01-25T02:02:53;46.10;;;25.90;;
51792;SDS011;37850;53.178;6.376;2023-01-25T02:08:16;49.22;;;27.95;;
51792;SDS011;37850;53.178;6.376;2023-01-25T02:10:43;52.97;;;29.52;;
51792;SDS011;37850;53.178;6.376;2023-01-25T02:13:11;55.25;;;30.10;;
51792;SDS011;37850;53.178;6.376;2023-01-25T02:15:40;55.70;;;29.13;;
51792;SDS011;37850;53.178;6.376;2023-01-25T02:18:10;53.75;;;28.73;;
51792;SDS011;37850;53.178;6.376;2023-01-25T02:20:41;55.78;;;29.17;;
51792;SDS011;37850;53.178;6.376;2023-01-25T02:23:10;52.58;;;27.88;;
51792;SDS011;37850;53.178;6.376;2023-01-25T02:26:03;52.83;;;28.33;;
51792;SDS011;37850;53.178;6.376;2023-01-25T02:28:47;60.58;;;31.33;;
51792;SDS011;37850;53.178;6.376;2023-01-25T02:31:23;54.58;;;29.48;;
51792;SDS011;37850;53.178;6.376;2023-01-25T02:33:49;57.05;;;30.30;;
51792;SDS011;37850;53.178;6.376;2023-01-25T02:36:19;59.22;;;30.35;;
51792;SDS011;37850;53.178;6.376;2023-01-25T02:38:47;62.15;;;32.03;;
51792;SDS011;37850;53.178;6.376;2023-01-25T02:41:20;67.13;;;32.65;;
51792;SDS011;37850;53.178;6.376;2023-01-25T02:44:02;61.88;;;32.25;;
51792;SDS011;37850;53.178;6.376;2023-01-25T02:46:35;64.85;;;33.78;;
51792;SDS011;37850;53.178;6.376;2023-01-25T02:49:03;60.58;;;32.45;;
51792;SDS011;37850;53.178;6.376;2023-01-25T02:51:31;62.15;;;32.53;;
51792;SDS011;37850;53.178;6.376;2023-01-25T02:53:59;69.25;;;34.40;;
51792;SDS011;37850;53.178;6.376;2023-01-25T02:56:26;73.03;;;34.70;;
51792;SDS011;37850;53.178;6.376;2023-01-25T02:58:51;66.90;;;34.22;;
51792;SDS011;37850;53.178;6.376;2023-01-25T03:01:17;66.25;;;34.72;;
51792;SDS011;37850;53.178;6.376;2023-01-25T03:03:43;68.57;;;35.60;;
51792;SDS011;37850;53.178;6.376;2023-01-25T03:06:09;69.97;;;35.42;;
51792;SDS011;37850;53.178;6.376;2023-01-25T03:08:35;73.75;;;38.08;;
51792;SDS011;37850;53.178;6.376;2023-01-25T03:11:01;82.13;;;40.42;;
51792;SDS011;37850;53.178;6.376;2023-01-25T03:13:29;72.80;;;37.33;;
51792;SDS011;37850;53.178;6.376;2023-01-25T03:15:59;73.82;;;37.58;;
51792;SDS011;37850;53.178;6.376;2023-01-25T03:20:53;75.53;;;36.67;;
51792;SDS011;37850;53.178;6.376;2023-01-25T03:23:18;74.72;;;36.72;;
51792;SDS011;37850;53.178;6.376;2023-01-25T03:25:44;76.07;;;39.08;;
51792;SDS011;37850;53.178;6.376;2023-01-25T03:28:10;78.47;;;38.90;;
51792;SDS011;37850;53.178;6.376;2023-01-25T03:30:36;71.72;;;35.40;;
51792;SDS011;37850;53.178;6.376;2023-01-25T03:33:01;73.82;;;37.78;;
51792;SDS011;37850;53.178;6.376;2023-01-25T03:35:27;76.30;;;36.50;;
51792;SDS011;37850;53.178;6.376;2023-01-25T03:37:53;73.35;;;37.67;;
51792;SDS011;37850;53.178;6.376;2023-01-25T03:40:18;76.07;;;37.55;;
51792;SDS011;37850;53.178;6.376;2023-01-25T03:42:44;69.82;;;36.67;;
51792;SDS011;37850;53.178;6.376;2023-01-25T03:45:10;74.90;;;37.28;;
51792;SDS011;37850;53.178;6.376;2023-01-25T03:47:38;74.60;;;37.72;;
51792;SDS011;37850;53.178;6.376;2023-01-25T03:50:05;76.40;;;39.92;;
51792;SDS011;37850;53.178;6.376;2023-01-25T03:52:32;75.40;;;39.45;;
51792;SDS011;37850;53.178;6.376;2023-01-25T03:55:06;82.53;;;39.55;;
51792;SDS011;37850;53.178;6.376;2023-01-25T03:57:32;76.28;;;38.42;;
51792;SDS011;37850;53.178;6.376;2023-01-25T03:59:57;72.97;;;37.33;;
51792;SDS011;37850;53.178;6.376;2023-01-25T04:02:23;72.93;;;37.03;;
51792;SDS011;37850;53.178;6.376;2023-01-25T04:04:49;74.80;;;39.60;;
51792;SDS011;37850;53.178;6.376;2023-01-25T04:07:14;69.25;;;35.50;;
51792;SDS011;37850;53.178;6.376;2023-01-25T04:09:40;70.70;;;36.08;;
51792;SDS011;37850;53.178;6.376;2023-01-25T04:12:06;68.07;;;34.83;;
51792;SDS011;37850;53.178;6.376;2023-01-25T04:14:32;71.97;;;37.65;;
51792;SDS011;37850;53.178;6.376;2023-01-25T04:16:57;76.80;;;36.55;;
51792;SDS011;37850;53.178;6.376;2023-01-25T04:19:23;67.75;;;35.47;;
51792;SDS011;37850;53.178;6.376;2023-01-25T04:21:49;66.95;;;33.90;;
51792;SDS011;37850;53.178;6.376;2023-01-25T04:24:14;68.82;;;35.40;;
51792;SDS011;37850;53.178;6.376;2023-01-25T04:26:40;66.47;;;33.50;;
51792;SDS011;37850;53.178;6.376;2023-01-25T04:29:06;68.50;;;35.05;;
51792;SDS011;37850;53.178;6.376;2023-01-25T04:31:32;68.78;;;34.40;;
51792;SDS011;37850;53.178;6.376;2023-01-25T04:33:57;66.25;;;34.30;;
51792;SDS011;37850;53.178;6.376;2023-01-25T04:36:23;72.38;;;35.92;;
51792;SDS011;37850;53.178;6.376;2023-01-25T04:38:49;69.97;;;35.05;;
51792;SDS011;37850;53.178;6.376;2023-01-25T04:41:14;64.95;;;34.53;;
51792;SDS011;37850;53.178;6.376;2023-01-25T04:43:40;66.57;;;34.63;;
51792;SDS011;37850;53.178;6.376;2023-01-25T04:46:06;67.18;;;35.13;;
51792;SDS011;37850;53.178;6.376;2023-01-25T04:48:33;68.63;;;35.03;;
51792;SDS011;37850;53.178;6.376;2023-01-25T04:50:58;69.85;;;35.10;;
51792;SDS011;37850;53.178;6.376;2023-01-25T04:53:25;70.13;;;36.13;;
51792;SDS011;37850;53.178;6.376;2023-01-25T04:55:51;65.43;;;35.85;;
51792;SDS011;37850;53.178;6.376;2023-01-25T04:58:16;69.45;;;36.17;;
51792;SDS011;37850;53.178;6.376;2023-01-25T05:00:43;70.32;;;35.10;;
51792;SDS011;37850;53.178;6.376;2023-01-25T05:03:09;69.32;;;34.50;;
51792;SDS011;37850;53.178;6.376;2023-01-25T05:05:35;73.57;;;36.05;;
51792;SDS011;37850;53.178;6.376;2023-01-25T05:08:00;68.38;;;33.90;;
51792;SDS011;37850;53.178;6.376;2023-01-25T05:10:26;65.70;;;34.17;;
51792;SDS011;37850;53.178;6.376;2023-01-25T05:12:52;68.22;;;35.20;;
51792;SDS011;37850;53.178;6.376;2023-01-25T05:15:17;70.38;;;35.13;;
51792;SDS011;37850;53.178;6.376;2023-01-25T05:17:43;66.47;;;34.53;;
51792;SDS011;37850;53.178;6.376;2023-01-25T05:20:09;67.47;;;33.60;;
51792;SDS011;37850;53.178;6.376;2023-01-25T05:22:35;70.28;;;36.13;;
51792;SDS011;37850;53.178;6.376;2023-01-25T05:25:01;75.82;;;36.63;;
51792;SDS011;37850;53.178;6.376;2023-01-25T05:27:28;70.35;;;35.03;;
51792;SDS011;37850;53.178;6.376;2023-01-25T05:29:53;71.53;;;36.50;;
51792;SDS011;37850;53.178;6.376;2023-01-25T05:32:20;77.18;;;37.13;;
51792;SDS011;37850;53.178;6.376;2023-01-25T05:34:48;70.18;;;35.83;;
51792;SDS011;37850;53.178;6.376;2023-01-25T05:37:15;71.25;;;35.95;;
51792;SDS011;37850;53.178;6.376;2023-01-25T05:39:42;66.72;;;34.70;;
51792;SDS011;37850;53.178;6.376;2023-01-25T05:42:12;67.53;;;34.15;;
51792;SDS011;37850;53.178;6.376;2023-01-25T05:44:39;53.67;;;26.55;;
51792;SDS011;37850;53.178;6.376;2023-01-25T05:47:05;74.75;;;35.97;;
51792;SDS011;37850;53.178;6.376;2023-01-25T05:49:31;71.00;;;33.25;;
51792;SDS011;37850;53.178;6.376;2023-01-25T05:51:57;68.28;;;34.67;;
51792;SDS011;37850;53.178;6.376;2023-01-25T05:54:23;66.15;;;32.80;;
51792;SDS011;37850;53.178;6.376;2023-01-25T05:56:48;68.15;;;33.97;;
51792;SDS011;37850;53.178;6.376;2023-01-25T05:59:14;68.65;;;33.45;;
51792;SDS011;37850;53.178;6.376;2023-01-25T06:01:41;66.65;;;33.10;;
51792;SDS011;37850;53.178;6.376;2023-01-25T06:04:08;67.80;;;32.63;;
51792;SDS011;37850;53.178;6.376;2023-01-25T06:06:38;67.68;;;33.20;;
51792;SDS011;37850;53.178;6.376;2023-01-25T06:09:04;66.53;;;33.67;;
51792;SDS011;37850;53.178;6.376;2023-01-25T06:11:30;64.13;;;32.75;;
51792;SDS011;37850;53.178;6.376;2023-01-25T06:13:55;69.20;;;33.85;;
51792;SDS011;37850;53.178;6.376;2023-01-25T06:16:21;67.22;;;33.67;;
51792;SDS011;37850;53.178;6.376;2023-01-25T06:18:47;64.50;;;32.05;;
51792;SDS011;37850;53.178;6.376;2023-01-25T06:21:13;63.75;;;32.80;;
51792;SDS011;37850;53.178;6.376;2023-01-25T06:23:39;64.90;;;33.45;;
51792;SDS011;37850;53.178;6.376;2023-01-25T06:26:09;64.13;;;32.92;;
51792;SDS011;37850;53.178;6.376;2023-01-25T06:28:37;63.33;;;34.40;;
51792;SDS011;37850;53.178;6.376;2023-01-25T06:31:07;61.72;;;32.85;;
51792;SDS011;37850;53.178;6.376;2023-01-25T06:33:37;66.63;;;34.20;;
51792;SDS011;37850;53.178;6.376;2023-01-25T06:36:04;66.68;;;32.58;;
51792;SDS011;37850;53.178;6.376;2023-01-25T06:38:32;64.35;;;33.08;;
51792;SDS011;37850;53.178;6.376;2023-01-25T06:40:59;67.68;;;35.03;;
51792;SDS011;37850;53.178;6.376;2023-01-25T06:43:29;62.00;;;31.67;;
51792;SDS011;37850;53.178;6.376;2023-01-25T06:46:01;64.97;;;34.05;;
51792;SDS011;37850;53.178;6.376;2023-01-25T06:48:29;64.32;;;31.75;;
51792;SDS011;37850;53.178;6.376;2023-01-25T06:51:05;57.95;;;30.52;;
51792;SDS011;37850;53.178;6.376;2023-01-25T06:53:33;57.47;;;29.73;;
51792;SDS011;37850;53.178;6.376;2023-01-25T06:58:28;59.28;;;31.27;;
51792;SDS011;37850;53.178;6.376;2023-01-25T07:01:03;59.92;;;29.33;;
51792;SDS011;37850;53.178;6.376;2023-01-25T07:03:30;59.85;;;30.80;;
51792;SDS011;37850;53.178;6.376;2023-01-25T07:06:01;58.33;;;30.67;;
51792;SDS011;37850;53.178;6.376;2023-01-25T07:08:28;56.47;;;29.25;;
51792;SDS011;37850;53.178;6.376;2023-01-25T07:10:59;55.55;;;30.15;;
51792;SDS011;37850;53.178;6.376;2023-01-25T07:13:26;55.78;;;30.42;;
51792;SDS011;37850;53.178;6.376;2023-01-25T07:15:58;54.45;;;29.85;;
51792;SDS011;37850;53.178;6.376;2023-01-25T07:18:28;57.60;;;29.75;;
51792;SDS011;37850;53.178;6.376;2023-01-25T07:21:02;58.22;;;31.20;;
51792;SDS011;37850;53.178;6.376;2023-01-25T07:23:37;56.53;;;30.25;;
51792;SDS011;37850;53.178;6.376;2023-01-25T07:26:03;52.83;;;29.05;;
51792;SDS011;37850;53.178;6.376;2023-01-25T07:28:30;57.00;;;30.42;;
51792;SDS011;37850;53.178;6.376;2023-01-25T07:31:06;54.75;;;30.73;;
51792;SDS011;37850;53.178;6.376;2023-01-25T07:33:32;54.08;;;29.35;;
51792;SDS011;37850;53.178;6.376;2023-01-25T07:35:59;53.83;;;29.77;;
51792;SDS011;37850;53.178;6.376;2023-01-25T07:38:26;57.72;;;28.88;;
51792;SDS011;37850;53.178;6.376;2023-01-25T07:40:52;56.70;;;31.10;;
51792;SDS011;37850;53.178;6.376;2023-01-25T07:43:17;55.85;;;29.00;;
51792;SDS011;37850;53.178;6.376;2023-01-25T07:45:44;62.60;;;33.67;;
51792;SDS011;37850;53.178;6.376;2023-01-25T07:48:13;59.00;;;30.58;;
51792;SDS011;37850;53.178;6.376;2023-01-25T07:50:39;57.25;;;30.80;;
51792;SDS011;37850;53.178;6.376;2023-01-25T07:53:08;61.97;;;30.67;;
51792;SDS011;37850;53.178;6.376;2023-01-25T07:55:34;56.03;;;30.40;;
51792;SDS011;37850;53.178;6.376;2023-01-25T07:58:00;55.97;;;30.27;;
51792;SDS011;37850;53.178;6.376;2023-01-25T08:00:26;57.58;;;31.90;;
51792;SDS011;37850;53.178;6.376;2023-01-25T08:02:51;56.10;;;29.67;;
51792;SDS011;37850;53.178;6.376;2023-01-25T08:05:17;55.88;;;30.30;;
51792;SDS011;37850;53.178;6.376;2023-01-25T08:07:44;60.45;;;31.80;;
51792;SDS011;37850;53.178;6.376;2023-01-25T08:10:10;59.45;;;29.30;;
51792;SDS011;37850;53.178;6.376;2023-01-25T08:12:36;63.47;;;32.42;;
51792;SDS011;37850;53.178;6.376;2023-01-25T08:15:03;58.67;;;30.27;;
51792;SDS011;37850;53.178;6.376;2023-01-25T08:17:29;55.45;;;29.33;;
51792;SDS011;37850;53.178;6.376;2023-01-25T08:19:57;59.30;;;30.67;;
51792;SDS011;37850;53.178;6.376;2023-01-25T08:22:23;56.80;;;30.40;;
51792;SDS011;37850;53.178;6.376;2023-01-25T08:24:49;56.60;;;29.85;;
51792;SDS011;37850;53.178;6.376;2023-01-25T08:27:15;62.40;;;31.17;;
51792;SDS011;37850;53.178;6.376;2023-01-25T08:29:40;63.72;;;32.53;;
51792;SDS011;37850;53.178;6.376;2023-01-25T08:32:06;64.90;;;32.65;;
51792;SDS011;37850;53.178;6.376;2023-01-25T08:34:32;59.33;;;30.80;;
51792;SDS011;37850;53.178;6.376;2023-01-25T08:36:58;68.57;;;33.17;;
51792;SDS011;37850;53.178;6.376;2023-01-25T08:39:25;60.70;;;30.58;;
51792;SDS011;37850;53.178;6.376;2023-01-25T08:41:51;61.67;;;31.20;;
51792;SDS011;37850;53.178;6.376;2023-01-25T08:44:17;65.97;;;32.58;;
51792;SDS011;37850;53.178;6.376;2023-01-25T08:46:48;66.35;;;33.25;;
51792;SDS011;37850;53.178;6.376;2023-01-25T08:49:14;63.22;;;32.22;;
51792;SDS011;37850;53.178;6.376;2023-01-25T08:51:40;66.50;;;32.58;;
51792;SDS011;37850;53.178;6.376;2023-01-25T08:54:06;64.63;;;32.70;;
51792;SDS011;37850;53.178;6.376;2023-01-25T08:56:38;68.70;;;33.38;;
51792;SDS011;37850;53.178;6.376;2023-01-25T08:59:04;65.10;;;31.90;;
51792;SDS011;37850;53.178;6.376;2023-01-25T09:01:30;62.40;;;31.38;;
51792;SDS011;37850;53.178;6.376;2023-01-25T09:03:56;65.55;;;32.30;;
51792;SDS011;37850;53.178;6.376;2023-01-25T09:06:22;70.13;;;34.30;;
51792;SDS011;37850;53.178;6.376;2023-01-25T09:08:48;67.88;;;32.08;;
51792;SDS011;37850;53.178;6.376;2023-01-25T09:11:23;66.55;;;32.13;;
51792;SDS011;37850;53.178;6.376;2023-01-25T09:13:48;64.35;;;31.60;;
51792;SDS011;37850;53.178;6.376;2023-01-25T09:16:18;66.15;;;31.05;;
51792;SDS011;37850;53.178;6.376;2023-01-25T09:18:52;66.20;;;31.83;;
51792;SDS011;37850;53.178;6.376;2023-01-25T09:21:18;68.20;;;31.67;;
51792;SDS011;37850;53.178;6.376;2023-01-25T09:23:46;66.90;;;32.65;;
51792;SDS011;37850;53.178;6.376;2023-01-25T09:26:13;66.00;;;32.40;;
51792;SDS011;37850;53.178;6.376;2023-01-25T09:28:39;70.85;;;35.38;;
51792;SDS011;37850;53.178;6.376;2023-01-25T09:31:06;67.57;;;33.42;;
51792;SDS011;37850;53.178;6.376;2023-01-25T09:33:33;66.55;;;32.75;;
51792;SDS011;37850;53.178;6.376;2023-01-25T09:36:00;70.32;;;31.25;;
51792;SDS011;37850;53.178;6.376;2023-01-25T09:38:26;73.57;;;32.63;;
51792;SDS011;37850;53.178;6.376;2023-01-25T09:41:14;66.32;;;31.63;;
51792;SDS011;37850;53.178;6.376;2023-01-25T09:44:02;66.53;;;30.98;;
51792;SDS011;37850;53.178;6.376;2023-01-25T09:46:45;62.85;;;30.52;;
51792;SDS011;37850;53.178;6.376;2023-01-25T09:54:26;65.53;;;31.05;;
51792;SDS011;37850;53.178;6.376;2023-01-25T09:56:55;72.95;;;34.75;;
51792;SDS011;37850;53.178;6.376;2023-01-25T09:59:23;67.40;;;31.75;;
51792;SDS011;37850;53.178;6.376;2023-01-25T10:04:33;60.75;;;29.58;;
51792;SDS011;37850;53.178;6.376;2023-01-25T10:10:05;61.50;;;29.02;;
51792;SDS011;37850;53.178;6.376;2023-01-25T10:12:36;66.25;;;28.80;;
51792;SDS011;37850;53.178;6.376;2023-01-25T10:15:22;58.50;;;27.75;;
51792;SDS011;37850;53.178;6.376;2023-01-25T10:17:55;65.35;;;27.77;;
51792;SDS011;37850;53.178;6.376;2023-01-25T10:20:33;65.60;;;28.45;;
51792;SDS011;37850;53.178;6.376;2023-01-25T10:23:24;60.38;;;27.23;;
51792;SDS011;37850;53.178;6.376;2023-01-25T10:26:25;62.25;;;27.88;;
51792;SDS011;37850;53.178;6.376;2023-01-25T10:34:25;61.20;;;27.42;;
51792;SDS011;37850;53.178;6.376;2023-01-25T10:36:53;47.83;;;22.02;;
51792;SDS011;37850;53.178;6.376;2023-01-25T10:39:20;69.13;;;30.52;;
51792;SDS011;37850;53.178;6.376;2023-01-25T10:41:48;66.57;;;31.75;;
51792;SDS011;37850;53.178;6.376;2023-01-25T10:44:20;67.70;;;30.45;;
51792;SDS011;37850;53.178;6.376;2023-01-25T10:46:56;66.97;;;31.17;;
51792;SDS011;37850;53.178;6.376;2023-01-25T10:49:46;70.68;;;32.40;;
51792;SDS011;37850;53.178;6.376;2023-01-25T10:54:41;74.60;;;32.97;;
51792;SDS011;37850;53.178;6.376;2023-01-25T10:57:08;72.65;;;32.15;;
51792;SDS011;37850;53.178;6.376;2023-01-25T10:59:38;68.55;;;30.05;;
51792;SDS011;37850;53.178;6.376;2023-01-25T11:07:48;68.80;;;29.20;;
51792;SDS011;37850;53.178;6.376;2023-01-25T11:15:41;75.93;;;31.33;;
51792;SDS011;37850;53.178;6.376;2023-01-25T11:23:47;75.43;;;29.17;;
51792;SDS011;37850;53.178;6.376;2023-01-25T11:26:22;71.57;;;28.85;;
51792;SDS011;37850;53.178;6.376;2023-01-25T11:28:47;66.32;;;27.13;;
51792;SDS011;37850;53.178;6.376;2023-01-25T11:31:20;69.30;;;27.88;;
51792;SDS011;37850;53.178;6.376;2023-01-25T11:33:46;73.15;;;30.02;;
51792;SDS011;37850;53.178;6.376;2023-01-25T11:52:04;79.47;;;30.25;;
51792;SDS011;37850;53.178;6.376;2023-01-25T12:11:26;82.07;;;30.47;;
51792;SDS011;37850;53.178;6.376;2023-01-25T12:14:25;78.45;;;29.38;;
51792;SDS011;37850;53.178;6.376;2023-01-25T12:17:14;82.28;;;29.27;;
51792;SDS011;37850;53.178;6.376;2023-01-25T12:30:41;77.10;;;27.05;;
51792;SDS011;37850;53.178;6.376;2023-01-25T12:35:45;75.13;;;27.52;;
51792;SDS011;37850;53.178;6.376;2023-01-25T12:43:49;80.38;;;28.88;;
51792;SDS011;37850;53.178;6.376;2023-01-25T12:46:29;82.97;;;29.25;;
51792;SDS011;37850;53.178;6.376;2023-01-25T12:49:03;79.97;;;27.70;;
51792;SDS011;37850;53.178;6.376;2023-01-25T12:51:38;75.40;;;28.67;;
51792;SDS011;37850;53.178;6.376;2023-01-25T12:54:15;82.20;;;30.00;;
51792;SDS011;37850;53.178;6.376;2023-01-25T12:57:10;86.63;;;29.17;;
51792;SDS011;37850;53.178;6.376;2023-01-25T12:59:49;85.93;;;31.00;;
51792;SDS011;37850;53.178;6.376;2023-01-25T13:05:31;84.50;;;28.42;;
51792;SDS011;37850;53.178;6.376;2023-01-25T13:11:23;82.50;;;27.58;;
51792;SDS011;37850;53.178;6.376;2023-01-25T13:14:17;76.60;;;27.92;;
51792;SDS011;37850;53.178;6.376;2023-01-25T13:16:40;72.05;;;25.70;;
51792;SDS011;37850;53.178;6.376;2023-01-25T13:19:55;88.22;;;28.45;;
51792;SDS011;37850;53.178;6.376;2023-01-25T13:22:02;81.07;;;27.60;;
51792;SDS011;37850;53.178;6.376;2023-01-25T13:24:32;85.88;;;28.80;;
51792;SDS011;37850;53.178;6.376;2023-01-25T13:27:03;74.50;;;26.75;;
51792;SDS011;37850;53.178;6.376;2023-01-25T13:29:46;75.05;;;26.83;;
51792;SDS011;37850;53.178;6.376;2023-01-25T13:37:24;82.75;;;28.75;;
51792;SDS011;37850;53.178;6.376;2023-01-25T13:42:35;76.03;;;26.33;;
51792;SDS011;37850;53.178;6.376;2023-01-25T13:45:03;80.95;;;28.77;;
51792;SDS011;37850;53.178;6.376;2023-01-25T13:47:42;83.00;;;28.25;;
51792;SDS011;37850;53.178;6.376;2023-01-25T13:50:23;80.88;;;27.88;;
51792;SDS011;37850;53.178;6.376;2023-01-25T13:53:05;80.85;;;27.13;;
51792;SDS011;37850;53.178;6.376;2023-01-25T13:55:46;80.95;;;27.83;;
51792;SDS011;37850;53.178;6.376;2023-01-25T13:58:23;78.60;;;27.83;;
51792;SDS011;37850;53.178;6.376;2023-01-25T14:00:59;84.10;;;28.35;;
51792;SDS011;37850;53.178;6.376;2023-01-25T14:03:34;79.22;;;27.23;;
51792;SDS011;37850;53.178;6.376;2023-01-25T14:06:05;80.93;;;27.42;;
51792;SDS011;37850;53.178;6.376;2023-01-25T14:08:38;78.30;;;28.25;;
51792;SDS011;37850;53.178;6.376;2023-01-25T14:11:04;84.35;;;28.42;;
51792;SDS011;37850;53.178;6.376;2023-01-25T14:13:31;84.40;;;30.58;;
51792;SDS011;37850;53.178;6.376;2023-01-25T14:15:58;83.25;;;28.67;;
51792;SDS011;37850;53.178;6.376;2023-01-25T14:18:29;86.85;;;30.10;;
51792;SDS011;37850;53.178;6.376;2023-01-25T14:23:36;79.82;;;28.85;;
51792;SDS011;37850;53.178;6.376;2023-01-25T14:26:02;84.38;;;29.50;;
51792;SDS011;37850;53.178;6.376;2023-01-25T14:28:28;82.47;;;29.08;;
51792;SDS011;37850;53.178;6.376;2023-01-25T14:30:58;82.13;;;30.73;;
51792;SDS011;37850;53.178;6.376;2023-01-25T14:33:29;88.32;;;33.78;;
51792;SDS011;37850;53.178;6.376;2023-01-25T14:36:06;92.82;;;33.53;;
51792;SDS011;37850;53.178;6.376;2023-01-25T14:38:39;85.45;;;31.02;;
51792;SDS011;37850;53.178;6.376;2023-01-25T14:41:16;93.88;;;32.22;;
51792;SDS011;37850;53.178;6.376;2023-01-25T14:43:45;89.05;;;31.52;;
51792;SDS011;37850;53.178;6.376;2023-01-25T14:51:46;95.25;;;35.67;;
51792;SDS011;37850;53.178;6.376;2023-01-25T14:54:30;95.47;;;34.28;;
51792;SDS011;37850;53.178;6.376;2023-01-25T14:57:01;99.10;;;35.45;;
51792;SDS011;37850;53.178;6.376;2023-01-25T14:59:34;92.82;;;35.20;;
51792;SDS011;37850;53.178;6.376;2023-01-25T15:02:15;99.93;;;35.53;;
51792;SDS011;37850;53.178;6.376;2023-01-25T15:05:02;87.18;;;32.08;;
51792;SDS011;37850;53.178;6.376;2023-01-25T15:07:41;90.32;;;33.15;;
51792;SDS011;37850;53.178;6.376;2023-01-25T15:10:16;89.60;;;33.85;;
51792;SDS011;37850;53.178;6.376;2023-01-25T15:12:57;92.53;;;34.08;;
51792;SDS011;37850;53.178;6.376;2023-01-25T15:15:27;85.97;;;31.05;;
51792;SDS011;37850;53.178;6.376;2023-01-25T15:17:55;93.10;;;34.05;;
51792;SDS011;37850;53.178;6.376;2023-01-25T15:23:20;85.82;;;33.75;;
51792;SDS011;37850;53.178;6.376;2023-01-25T15:28:28;89.03;;;33.10;;
51792;SDS011;37850;53.178;6.376;2023-01-25T15:30:58;89.03;;;33.13;;
51792;SDS011;37850;53.178;6.376;2023-01-25T15:33:26;92.68;;;33.55;;
51792;SDS011;37850;53.178;6.376;2023-01-25T15:35:53;92.07;;;33.97;;
51792;SDS011;37850;53.178;6.376;2023-01-25T15:38:19;91.00;;;33.38;;
51792;SDS011;37850;53.178;6.376;2023-01-25T15:40:46;87.35;;;33.97;;
51792;SDS011;37850;53.178;6.376;2023-01-25T15:43:13;91.57;;;33.17;;
51792;SDS011;37850;53.178;6.376;2023-01-25T15:45:40;93.30;;;33.00;;
51792;SDS011;37850;53.178;6.376;2023-01-25T15:48:19;90.25;;;33.47;;
51792;SDS011;37850;53.178;6.376;2023-01-25T15:53:20;86.70;;;33.15;;
51792;SDS011;37850;53.178;6.376;2023-01-25T15:55:47;96.32;;;34.67;;
51792;SDS011;37850;53.178;6.376;2023-01-25T15:58:26;96.05;;;32.55;;
51792;SDS011;37850;53.178;6.376;2023-01-25T16:00:54;91.00;;;33.05;;
51792;SDS011;37850;53.178;6.376;2023-01-25T16:03:20;96.20;;;35.03;;
51792;SDS011;37850;53.178;6.376;2023-01-25T16:05:47;91.07;;;34.13;;
51792;SDS011;37850;53.178;6.376;2023-01-25T16:08:15;93.38;;;32.20;;
51792;SDS011;37850;53.178;6.376;2023-01-25T16:10:42;92.32;;;33.75;;
51792;SDS011;37850;53.178;6.376;2023-01-25T16:13:08;99.20;;;35.70;;
51792;SDS011;37850;53.178;6.376;2023-01-25T16:15:35;96.72;;;33.70;;
51792;SDS011;37850;53.178;6.376;2023-01-25T16:18:02;98.75;;;33.67;;
51792;SDS011;37850;53.178;6.376;2023-01-25T16:20:28;100.53;;;34.40;;
51792;SDS011;37850;53.178;6.376;2023-01-25T16:22:54;92.13;;;31.95;;
51792;SDS011;37850;53.178;6.376;2023-01-25T16:25:20;90.57;;;32.63;;
51792;SDS011;37850;53.178;6.376;2023-01-25T16:27:46;97.60;;;33.65;;
51792;SDS011;37850;53.178;6.376;2023-01-25T16:30:18;92.90;;;33.00;;
51792;SDS011;37850;53.178;6.376;2023-01-25T16:32:45;104.38;;;34.50;;
51792;SDS011;37850;53.178;6.376;2023-01-25T16:35:14;97.63;;;34.40;;
51792;SDS011;37850;53.178;6.376;2023-01-25T16:37:40;97.38;;;34.45;;
51792;SDS011;37850;53.178;6.376;2023-01-25T16:40:08;100.80;;;33.92;;
51792;SDS011;37850;53.178;6.376;2023-01-25T16:42:49;103.53;;;34.55;;